Wheeling Ohio County Airport Wheeling US
ICAO: KHLG
IATA: HLG
Category: Medium
Scheduled Services: No

Elevation: 1195 ft
TransAlt. 18000 ft.

Airport Communications:
PITTSBURG APP/DEP:118.65
ASOS:127.375
CTAF:118.1
GND:121.75
ELKINS RDO:118.65
TWR:118.1
UNICOM:122.95

KHLG Zoom In..

Runways:

(A) RW 03 length 5002 ft width 150 ft
ILS 109.70 / hdg 33

(B) RW 16 length 4499 ft width 150 ft
---- / hdg 158

(C) RW 21 length 5002 ft width 150 ft
---- / hdg 213

(D) RW 34 length 4499 ft width 150 ft
---- / hdg 338

Location; KHLG
Day. 26 / Time. 10.53 Zulu
* Altimeter: 30.14
* Temperature: 19° c. 66.2°f.
* Wind from: 150° Speed 06 kn.
Dewpoint: 16° c.
Visibility: 10 Statute Miles.
Clouds: Clear (automated report).

KHLG 261053Z 15006KT 10SM CLR 19/16 A3014 RMK AO2 SLP201 T01940156


Wind From 150°
Speed 06 kn.

 
 
jpsmedia worldairports.se 2020   terms of use